Time;durP1;ratioP1;P1;durP2;ratioP2;P2;SDS_P1;SDS_P2;PMS_P1;PMS_P2;Temp;Humidity;BMP_temperature;BMP_pressure;BME280_temperature;BME280_humidity;BME280_pressure;Samples;Min_cycle;Max_cycle;Signal;HPM_P1;HPM_P2
2021/06/24 00:05:52;;;;;;;3.90;3.37;;;15.60;99.90;;;;;;21010433;28;20678;-78
2021/06/24 00:15:54;;;;;;;7.90;3.78;;;15.60;99.90;;;;;;21010343;28;20438;-78
2021/06/24 00:25:55;;;;;;;8.38;3.60;;;15.80;99.90;;;;;;21006740;28;20060;-77
2021/06/24 00:35:56;;;;;;;4.67;3.73;;;15.60;99.90;;;;;;21005035;28;20066;-77
2021/06/24 00:45:57;;;;;;;5.07;2.90;;;15.20;99.90;;;;;;20993952;28;20086;-76
2021/06/24 00:55:59;;;;;;;3.83;3.50;;;15.40;99.90;;;;;;20974874;28;20050;-77
2021/06/24 01:06:01;;;;;;;6.97;2.90;;;15.00;99.90;;;;;;20994212;28;20028;-76
2021/06/24 01:16:02;;;;;;;8.63;2.80;;;15.20;99.90;;;;;;20983251;28;20081;-76
2021/06/24 01:26:03;;;;;;;10.57;3.73;;;15.20;99.90;;;;;;20991906;28;20032;-76
2021/06/24 01:36:06;;;;;;;4.77;3.57;;;14.50;99.90;;;;;;20990951;28;20112;-77
2021/06/24 01:46:10;;;;;;;6.70;4.57;;;14.70;99.90;;;;;;20956582;28;20115;-77
2021/06/24 01:56:11;;;;;;;9.93;5.60;;;14.70;99.90;;;;;;20990824;28;20048;-77
2021/06/24 02:06:12;;;;;;;8.80;5.70;;;14.70;99.90;;;;;;20990108;28;20499;-77
2021/06/24 02:16:16;;;;;;;8.02;6.45;;;14.80;99.90;;;;;;20971750;28;20024;-77
2021/06/24 02:26:17;;;;;;;11.82;7.07;;;14.90;99.90;;;;;;20998752;28;20078;-76
2021/06/24 02:36:29;;;;;;;11.97;6.93;;;15.00;99.90;;;;;;21034280;28;20131;-76
2021/06/24 02:46:30;;;;;;;7.97;4.87;;;15.10;99.90;;;;;;21024348;28;20398;-77
2021/06/24 02:56:41;;;;;;;11.30;7.27;;;15.10;99.90;;;;;;21016907;28;20294;-77
2021/06/24 03:07:02;;;;;;;9.85;7.00;;;15.10;99.90;;;;;;21034551;28;20052;-77
2021/06/24 03:17:09;;;;;;;11.90;8.65;;;15.20;99.90;;;;;;21014973;28;20234;-77
2021/06/24 03:27:11;;;;;;;10.82;7.13;;;15.00;99.90;;;;;;20985052;28;20052;-75
2021/06/24 03:37:30;;;;;;;22.00;11.10;;;14.80;99.90;;;;;;20985636;28;20032;-78
2021/06/24 03:47:32;;;;;;;7.35;4.97;;;14.90;99.90;;;;;;20971279;28;20189;-76
2021/06/24 03:57:33;;;;;;;10.10;6.43;;;14.90;99.90;;;;;;20983348;28;20029;-77
2021/06/24 04:07:47;;;;;;;16.40;6.97;;;14.90;99.90;;;;;;21002408;28;20032;-76
2021/06/24 04:17:48;;;;;;;10.17;5.87;;;14.90;99.90;;;;;;20993423;28;20025;-77
2021/06/24 04:27:50;;;;;;;14.40;4.33;;;14.70;99.90;;;;;;20983162;28;20106;-77
2021/06/24 04:37:53;;;;;;;3.58;2.25;;;14.70;99.90;;;;;;20984244;28;20066;-77
2021/06/24 04:47:55;;;;;;;3.88;1.70;;;14.60;99.90;;;;;;20984807;28;20380;-77
2021/06/24 04:57:56;;;;;;;3.53;1.88;;;15.00;99.90;;;;;;20983848;28;20033;-78
2021/06/24 05:08:17;;;;;;;2.80;1.98;;;15.40;99.90;;;;;;21009630;28;20124;-77
2021/06/24 05:18:19;;;;;;;5.15;1.90;;;15.50;99.90;;;;;;21022258;28;20021;-77
2021/06/24 05:28:20;;;;;;;2.43;1.50;;;15.40;99.90;;;;;;20991436;28;20039;-77
2021/06/24 05:38:21;;;;;;;6.03;1.97;;;15.60;99.90;;;;;;21029579;28;20368;-77
2021/06/24 05:48:22;;;;;;;7.97;2.80;;;15.80;99.90;;;;;;21011354;28;20047;-77
2021/06/24 05:58:25;;;;;;;4.13;3.43;;;15.80;99.90;;;;;;21007973;28;20032;-77
2021/06/24 06:08:27;;;;;;;14.27;7.90;;;15.80;99.90;;;;;;21050433;28;20561;-77
2021/06/24 06:18:28;;;;;;;10.52;7.10;;;15.60;99.90;;;;;;21103310;28;20028;-77
2021/06/24 06:28:29;;;;;;;15.53;7.90;;;15.60;99.90;;;;;;21093282;28;20047;-77
2021/06/24 06:38:30;;;;;;;12.33;7.27;;;15.60;99.90;;;;;;21099043;28;20024;-77
2021/06/24 06:48:31;;;;;;;20.87;10.80;;;15.50;99.90;;;;;;21102326;28;20098;-78
2021/06/24 06:58:32;;;;;;;17.70;10.70;;;15.60;99.90;;;;;;21107533;28;20032;-78
2021/06/24 07:08:33;;;;;;;15.33;11.33;;;15.70;99.90;;;;;;21080643;28;20031;-78
2021/06/24 07:18:34;;;;;;;14.83;10.60;;;15.60;99.90;;;;;;21092199;28;20121;-78
2021/06/24 07:28:35;;;;;;;18.43;9.83;;;15.60;99.90;;;;;;21101574;28;20081;-77
2021/06/24 07:38:36;;;;;;;21.63;13.60;;;15.80;99.90;;;;;;21099747;28;20028;-78
2021/06/24 07:48:37;;;;;;;13.93;10.57;;;15.60;99.90;;;;;;21100914;28;20055;-78
2021/06/24 07:58:38;;;;;;;12.00;9.00;;;15.60;99.90;;;;;;21091982;28;20032;-77
2021/06/24 08:08:39;;;;;;;14.90;9.77;;;15.60;99.90;;;;;;21103208;28;20040;-77
2021/06/24 08:18:40;;;;;;;9.60;6.50;;;15.70;99.90;;;;;;21103375;28;20081;-78
2021/06/24 08:28:42;;;;;;;6.73;4.93;;;15.70;99.90;;;;;;21098633;28;20039;-78
2021/06/24 08:38:43;;;;;;;7.30;4.63;;;16.00;99.90;;;;;;21093405;28;20028;-78
2021/06/24 08:48:44;;;;;;;5.87;3.53;;;16.00;99.90;;;;;;21074724;28;20039;-77
2021/06/24 08:58:47;;;;;;;9.30;7.15;;;16.20;99.90;;;;;;21087662;28;20140;-77
2021/06/24 09:08:59;;;;;;;13.32;7.60;;;16.20;99.90;;;;;;21063316;28;20046;-77
2021/06/24 09:19:21;;;;;;;9.02;4.47;;;16.00;99.90;;;;;;21081984;28;20032;-77
2021/06/24 09:29:22;;;;;;;5.40;3.03;;;16.40;99.90;;;;;;21081323;28;20038;-77
2021/06/24 09:39:33;;;;;;;5.60;3.43;;;16.30;99.90;;;;;;21058291;28;20051;-77
2021/06/24 09:49:35;;;;;;;3.83;2.42;;;16.40;99.90;;;;;;21073983;28;20039;-77
2021/06/24 09:59:41;;;;;;;2.63;2.20;;;16.80;99.90;;;;;;21086622;28;20502;-77
2021/06/24 10:09:44;;;;;;;3.30;1.70;;;17.50;99.90;;;;;;21077751;28;20023;-78
2021/06/24 10:19:45;;;;;;;2.03;1.42;;;18.20;99.90;;;;;;21094157;28;20585;-78
2021/06/24 10:29:49;;;;;;;1.50;1.10;;;18.60;99.90;;;;;;21087010;28;20028;-77
2021/06/24 10:39:55;;;;;;;0.60;0.60;;;19.80;99.90;;;;;;21056585;28;20040;-77
2021/06/24 10:50:38;;;;;;;1.02;0.40;;;20.20;99.90;;;;;;21058144;28;20077;-77
2021/06/24 11:00:49;;;;;;;0.33;0.33;;;21.20;99.90;;;;;;21068496;28;20032;-77
2021/06/24 11:10:50;;;;;;;0.40;0.30;;;20.90;99.90;;;;;;21094967;28;20055;-77
2021/06/24 11:20:51;;;;;;;0.70;0.60;;;21.10;99.90;;;;;;21101895;28;20028;-78
2021/06/24 11:31:03;;;;;;;0.67;0.47;;;22.20;99.90;;;;;;21093818;28;20285;-78
2021/06/24 11:41:04;;;;;;;1.23;0.43;;;23.80;99.90;;;;;;21095588;28;20020;-79
2021/06/24 12:11:58;;;;;;;2.78;0.40;;;23.20;99.90;;;;;;21089699;28;20063;-79
2021/06/24 12:21:58;;;;;;;0.95;0.57;;;23.20;99.90;;;;;;21081451;28;20031;-79
2021/06/24 12:32:00;;;;;;;1.70;0.50;;;24.20;99.90;;;;;;21112376;22;20077;-75
2021/06/24 12:42:05;;;;;;;0.32;0.32;;;23.80;99.90;;;;;;20968669;28;20036;-74
2021/06/24 12:52:08;;;;;;;1.00;0.35;;;23.60;99.90;;;;;;21000524;28;20040;-76
2021/06/24 13:02:09;;;;;;;3.22;0.43;;;23.70;99.90;;;;;;20997842;28;20036;-75
2021/06/24 13:12:11;;;;;;;1.73;0.60;;;23.90;99.90;;;;;;20978270;28;20024;-76
2021/06/24 13:22:15;;;;;;;0.95;0.68;;;23.50;99.90;;;;;;20997631;28;20033;-76
2021/06/24 13:32:26;;;;;;;2.35;0.80;;;22.80;99.90;;;;;;21000372;28;20044;-76
2021/06/24 13:42:56;;;;;;;1.93;1.10;;;21.30;99.90;;;;;;20993906;28;20035;-75
2021/06/24 13:52:58;;;;;;;2.53;1.52;;;19.50;99.90;;;;;;20912442;28;20049;-74
2021/06/24 14:02:59;;;;;;;2.00;1.27;;;19.30;99.90;;;;;;20899030;28;20032;-76
2021/06/24 14:13:00;;;;;;;4.70;2.10;;;19.10;99.90;;;;;;20975170;28;20029;-75
2021/06/24 14:23:01;;;;;;;6.50;2.80;;;18.60;99.90;;;;;;20978180;28;20032;-76
2021/06/24 14:33:02;;;;;;;7.93;2.00;;;19.60;99.90;;;;;;20976780;28;20025;-76
2021/06/24 14:43:03;;;;;;;4.77;1.97;;;20.00;99.90;;;;;;20965832;28;20036;-75
2021/06/24 14:53:04;;;;;;;2.80;1.90;;;20.00;99.90;;;;;;20985940;28;20041;-75
2021/06/24 15:03:06;;;;;;;2.93;1.60;;;21.00;99.90;;;;;;20984910;28;20492;-76
2021/06/24 15:13:07;;;;;;;2.72;0.70;;;21.60;99.90;;;;;;20965910;28;20033;-76
2021/06/24 15:23:10;;;;;;;0.90;0.60;;;21.60;99.90;;;;;;20920978;28;20045;-76
2021/06/24 15:33:11;;;;;;;1.33;0.73;;;21.50;99.90;;;;;;20901081;28;20040;-76
2021/06/24 15:43:12;;;;;;;0.97;0.47;;;20.70;99.90;;;;;;20910943;28;20079;-77
2021/06/24 15:53:12;;;;;;;0.33;0.30;;;20.20;99.90;;;;;;20918831;28;20025;-80
2021/06/24 16:03:13;;;;;;;0.83;0.40;;;19.70;99.90;;;;;;20886560;28;20037;-80
2021/06/24 16:13:15;;;;;;;0.30;0.30;;;19.50;99.90;;;;;;20951884;28;20048;-82
2021/06/24 16:23:17;;;;;;;0.43;0.38;;;19.40;99.90;;;;;;20941483;28;20059;-81
2021/06/24 16:33:18;;;;;;;2.75;0.57;;;19.50;99.90;;;;;;20970106;28;20107;-78
2021/06/24 16:43:19;;;;;;;0.50;0.43;;;19.00;99.90;;;;;;20914680;28;20033;-79
2021/06/24 16:53:20;;;;;;;0.80;0.50;;;18.60;99.90;;;;;;20867576;28;20122;-77
2021/06/24 17:03:21;;;;;;;2.80;0.60;;;18.40;99.90;;;;;;20872390;28;20037;-76
2021/06/24 17:13:22;;;;;;;0.63;0.53;;;18.30;99.90;;;;;;20889724;28;20025;-75
2021/06/24 17:23:23;;;;;;;1.20;0.90;;;18.00;99.90;;;;;;20920851;28;20029;-78
2021/06/24 17:33:24;;;;;;;;;;;17.70;99.90;;;;;;20979844;28;20059;-78
2021/06/24 17:43:25;;;;;;;1.38;0.40;;;16.70;99.90;;;;;;20925261;28;19912;-79
2021/06/24 17:53:26;;;;;;;0.70;0.40;;;16.00;99.90;;;;;;20983765;28;20607;-78
2021/06/24 18:03:27;;;;;;;0.40;0.40;;;16.10;99.90;;;;;;20971065;28;20040;-75
2021/06/24 18:13:27;;;;;;;0.43;0.40;;;16.00;99.90;;;;;;20990495;28;20041;-75
2021/06/24 18:23:28;;;;;;;1.50;0.50;;;15.70;99.90;;;;;;20986285;22;20495;-75
2021/06/24 18:33:29;;;;;;;2.67;0.80;;;15.40;99.90;;;;;;20971519;28;20048;-76
2021/06/24 18:43:30;;;;;;;0.40;0.40;;;15.30;99.90;;;;;;20993064;28;20040;-77
2021/06/24 18:53:31;;;;;;;1.23;0.50;;;15.60;99.90;;;;;;21010802;28;20082;-78
2021/06/24 19:03:32;;;;;;;0.93;0.67;;;15.50;99.90;;;;;;20990350;28;20035;-77
2021/06/24 19:13:33;;;;;;;4.40;1.20;;;15.60;99.90;;;;;;21006633;28;20025;-77
2021/06/24 19:23:34;;;;;;;5.83;3.03;;;15.50;99.90;;;;;;20988273;28;20107;-77
2021/06/24 19:33:37;;;;;;;0.70;0.60;;;15.30;99.90;;;;;;21006369;28;20413;-78
2021/06/24 19:43:38;;;;;;;1.70;0.68;;;15.10;99.90;;;;;;20988387;28;20028;-77
2021/06/24 19:53:39;;;;;;;2.90;0.90;;;15.10;99.90;;;;;;21004482;28;20037;-77
2021/06/24 20:03:39;;;;;;;3.30;1.57;;;15.00;99.90;;;;;;20985648;28;20032;-78
2021/06/24 20:13:40;;;;;;;0.90;0.77;;;15.00;99.90;;;;;;20946946;28;20511;-78
2021/06/24 20:23:43;;;;;;;1.03;0.83;;;14.90;99.90;;;;;;20965785;28;20032;-78
2021/06/24 20:33:44;;;;;;;2.60;1.10;;;15.00;99.90;;;;;;20988819;28;20051;-76
2021/06/24 20:43:45;;;;;;;12.73;1.77;;;15.10;99.90;;;;;;20979636;28;20032;-77
2021/06/24 20:53:46;;;;;;;1.43;0.90;;;15.10;99.90;;;;;;21005110;28;20664;-78
2021/06/24 21:03:47;;;;;;;4.03;1.30;;;15.00;99.90;;;;;;20982483;28;20036;-76
2021/06/24 21:13:48;;;;;;;1.50;1.30;;;15.00;99.90;;;;;;20982966;28;20449;-77
2021/06/24 21:23:49;;;;;;;3.93;1.30;;;14.90;99.90;;;;;;20981225;28;20478;-77
2021/06/24 21:33:50;;;;;;;2.75;2.15;;;14.90;99.90;;;;;;20980675;28;20453;-77
2021/06/24 21:43:51;;;;;;;6.77;2.83;;;14.90;99.90;;;;;;20997314;28;20035;-77
2021/06/24 21:53:52;;;;;;;4.63;3.60;;;14.90;99.90;;;;;;20997176;28;20031;-78
2021/06/24 22:03:53;;;;;;;6.18;3.83;;;14.90;99.90;;;;;;20978617;28;20032;-77
2021/06/24 22:13:54;;;;;;;7.03;4.33;;;14.90;99.90;;;;;;20978242;28;20568;-77
2021/06/24 22:23:55;;;;;;;9.03;5.10;;;14.90;99.90;;;;;;20960128;28;20089;-78
2021/06/24 22:33:56;;;;;;;12.00;5.97;;;14.90;99.90;;;;;;20993324;28;20419;-77
2021/06/24 22:43:57;;;;;;;8.97;5.97;;;14.80;99.90;;;;;;20979465;28;20028;-77
2021/06/24 22:53:57;;;;;;;9.23;5.77;;;14.70;99.90;;;;;;21008205;28;20078;-77
2021/06/24 23:03:58;;;;;;;11.60;7.37;;;14.70;99.90;;;;;;20955630;28;20029;-77
2021/06/24 23:13:59;;;;;;;14.17;8.83;;;14.70;99.90;;;;;;20977183;28;20043;-77
2021/06/24 23:24:00;;;;;;;21.50;9.90;;;14.50;99.90;;;;;;20968171;28;20116;-77
2021/06/24 23:34:02;;;;;;;15.00;10.20;;;14.40;99.90;;;;;;20919465;28;20024;-76
2021/06/24 23:44:03;;;;;;;25.45;13.35;;;14.30;99.90;;;;;;20918796;28;20025;-77
2021/06/24 23:54:04;;;;;;;22.63;12.03;;;14.20;99.90;;;;;;20918892;28;20075;-76
